Time;durP1;ratioP1;P1;durP2;ratioP2;P2;SDS_P1;SDS_P2;PMS_P1;PMS_P2;Temp;Humidity;BMP_temperature;BMP_pressure;BME280_temperature;BME280_humidity;BME280_pressure;Samples;Min_cycle;Max_cycle;Signal;HPM_P1;HPM_P2
2022/09/10 00:01:15;;;;;;;8.93;5.90;;;;;;;;;;5050787;28;20030;-72
2022/09/10 00:03:42;;;;;;;8.13;5.93;;;;;;;;;;5036549;28;20024;-75
2022/09/10 00:06:08;;;;;;;11.07;5.85;;;;;;;;;;5047364;28;20032;-73
2022/09/10 00:08:34;;;;;;;7.07;5.97;;;;;;;;;;5057047;28;20459;-74
2022/09/10 00:11:02;;;;;;;8.85;5.50;;;;;;;;;;5058647;28;20052;-74
2022/09/10 00:13:27;;;;;;;10.23;5.93;;;;;;;;;;5056617;28;20444;-73
2022/09/10 00:15:53;;;;;;;8.82;5.40;;;;;;;;;;5056699;28;20043;-75
2022/09/10 00:18:20;;;;;;;9.57;5.93;;;;;;;;;;5057709;28;20028;-73
2022/09/10 00:20:47;;;;;;;6.68;5.78;;;;;;;;;;5057473;28;20025;-74
2022/09/10 00:23:13;;;;;;;8.65;6.25;;;;;;;;;;5058422;28;20020;-76
2022/09/10 00:25:39;;;;;;;6.45;5.85;;;;;;;;;;5041978;28;20028;-74
2022/09/10 00:28:04;;;;;;;7.95;6.07;;;;;;;;;;5053739;28;20085;-75
2022/09/10 00:30:30;;;;;;;9.05;6.88;;;;;;;;;;5056183;28;20063;-74
2022/09/10 00:32:56;;;;;;;7.90;6.13;;;;;;;;;;5059094;28;20079;-74
2022/09/10 00:35:21;;;;;;;7.07;5.97;;;;;;;;;;5058498;28;20388;-73
2022/09/10 00:37:47;;;;;;;8.38;6.28;;;;;;;;;;5055372;28;20024;-72
2022/09/10 00:40:12;;;;;;;9.68;7.22;;;;;;;;;;5056297;28;20033;-73
2022/09/10 00:42:42;;;;;;;11.32;6.40;;;;;;;;;;5037865;28;20510;-75
2022/09/10 00:45:07;;;;;;;;;;;;;;;;;;5037932;28;20405;-73
2022/09/10 00:47:38;;;;;;;8.37;6.37;;;;;;;;;;5037535;28;19913;-75
2022/09/10 00:50:06;;;;;;;10.38;7.00;;;;;;;;;;5038508;28;20428;-74
2022/09/10 00:52:32;;;;;;;7.80;7.00;;;;;;;;;;5037171;28;20033;-74
2022/09/10 00:54:58;;;;;;;8.65;6.95;;;;;;;;;;5037571;28;20021;-73
2022/09/10 00:57:26;;;;;;;8.45;6.85;;;;;;;;;;5036612;28;20031;-76
2022/09/10 00:59:54;;;;;;;7.78;6.57;;;;;;;;;;5038767;28;20031;-74
2022/09/10 01:02:20;;;;;;;10.20;6.82;;;;;;;;;;5035217;28;20035;-73
2022/09/10 01:04:46;;;;;;;9.02;6.72;;;;;;;;;;5034945;28;20034;-73
2022/09/10 01:07:12;;;;;;;7.35;6.55;;;;;;;;;;5035798;28;20734;-74
2022/09/10 01:09:38;;;;;;;8.35;7.03;;;;;;;;;;5037901;28;20455;-74
2022/09/10 01:12:12;;;;;;;8.20;6.53;;;;;;;;;;5041115;28;20036;-74
2022/09/10 01:14:56;;;;;;;11.13;6.95;;;;;;;;;;5041919;28;20104;-74
2022/09/10 01:17:21;;;;;;;7.93;6.38;;;;;;;;;;5039360;28;20028;-73
2022/09/10 01:19:58;;;;;;;8.23;6.28;;;;;;;;;;5040165;28;20043;-74
2022/09/10 01:22:43;;;;;;;8.18;6.20;;;;;;;;;;5056684;28;20458;-74
2022/09/10 01:25:08;;;;;;;8.38;6.93;;;;;;;;;;5040385;28;20035;-75
2022/09/10 01:27:38;;;;;;;7.35;6.53;;;;;;;;;;5038928;28;20032;-74
2022/09/10 01:30:06;;;;;;;7.63;6.18;;;;;;;;;;5038399;28;20029;-75
2022/09/10 01:32:58;;;;;;;7.18;6.30;;;;;;;;;;5038670;28;20123;-74
2022/09/10 01:35:29;;;;;;;8.60;6.50;;;;;;;;;;5022637;28;20115;-74
2022/09/10 01:37:56;;;;;;;8.27;6.88;;;;;;;;;;5040287;28;20024;-74
2022/09/10 01:40:28;;;;;;;8.10;6.53;;;;;;;;;;5040648;28;20673;-73
2022/09/10 01:43:05;;;;;;;8.13;6.72;;;;;;;;;;5049708;28;20044;-73
2022/09/10 01:45:35;;;;;;;7.70;6.90;;;;;;;;;;5060768;28;20028;-72
2022/09/10 01:48:06;;;;;;;8.00;6.57;;;;;;;;;;5061230;28;20047;-73
2022/09/10 01:50:38;;;;;;;8.30;6.95;;;;;;;;;;5058227;28;21091;-73
2022/09/10 01:53:18;;;;;;;11.30;6.72;;;;;;;;;;5060433;28;20064;-74
2022/09/10 01:55:53;;;;;;;7.05;6.32;;;;;;;;;;5059611;28;20036;-74
2022/09/10 01:58:29;;;;;;;7.72;6.88;;;;;;;;;;5059381;28;20085;-74
2022/09/10 02:01:05;;;;;;;8.07;7.07;;;;;;;;;;5060739;28;20024;-75
2022/09/10 02:03:30;;;;;;;7.60;6.88;;;;;;;;;;5060245;28;20024;-73
2022/09/10 02:05:58;;;;;;;7.45;6.75;;;;;;;;;;5060578;28;20028;-73
2022/09/10 02:08:27;;;;;;;7.75;6.70;;;;;;;;;;5059861;28;20024;-73
2022/09/10 02:10:54;;;;;;;7.35;6.28;;;;;;;;;;5057735;28;20343;-73
2022/09/10 02:13:21;;;;;;;8.32;7.03;;;;;;;;;;5060039;28;20056;-73
2022/09/10 02:15:48;;;;;;;7.55;6.88;;;;;;;;;;5060687;28;20478;-74
2022/09/10 02:18:13;;;;;;;9.48;7.05;;;;;;;;;;5058528;28;20433;-73
2022/09/10 02:20:39;;;;;;;7.35;6.65;;;;;;;;;;5039623;28;20033;-73
2022/09/10 02:23:05;;;;;;;8.63;7.40;;;;;;;;;;5059640;28;20017;-74
2022/09/10 02:25:32;;;;;;;7.90;7.10;;;;;;;;;;5059112;28;20456;-74
2022/09/10 02:27:58;;;;;;;7.88;6.90;;;;;;;;;;5058471;28;20611;-74
2022/09/10 02:30:23;;;;;;;8.32;7.40;;;;;;;;;;5057746;28;20060;-74
2022/09/10 02:32:49;;;;;;;8.38;7.53;;;;;;;;;;5059878;28;20035;-74
2022/09/10 02:35:14;;;;;;;9.70;7.70;;;;;;;;;;5057641;28;20024;-74
2022/09/10 02:37:41;;;;;;;9.40;7.93;;;;;;;;;;5059312;28;20028;-74
2022/09/10 02:40:07;;;;;;;7.47;6.75;;;;;;;;;;5058756;28;20025;-75
2022/09/10 02:42:33;;;;;;;10.00;7.32;;;;;;;;;;5057243;28;20059;-74
2022/09/10 02:44:59;;;;;;;7.95;7.03;;;;;;;;;;5056569;28;20120;-75
2022/09/10 02:47:24;;;;;;;7.35;6.65;;;;;;;;;;5057776;28;20115;-75
2022/09/10 02:49:49;;;;;;;10.35;7.38;;;;;;;;;;5059026;28;20028;-75
2022/09/10 02:52:15;;;;;;;8.60;7.25;;;;;;;;;;5058248;28;20137;-77
2022/09/10 02:54:40;;;;;;;8.88;7.00;;;;;;;;;;5056938;28;20262;-75
2022/09/10 02:57:06;;;;;;;9.10;7.68;;;;;;;;;;5059870;28;20082;-74
2022/09/10 02:59:32;;;;;;;9.02;7.70;;;;;;;;;;5052351;28;20802;-74
2022/09/10 03:01:58;;;;;;;8.38;7.32;;;;;;;;;;5054866;28;20021;-76
2022/09/10 03:04:23;;;;;;;8.00;7.20;;;;;;;;;;5041315;28;20032;-75
2022/09/10 03:06:48;;;;;;;8.55;7.78;;;;;;;;;;5042020;28;20112;-76
2022/09/10 03:09:14;;;;;;;8.70;7.80;;;;;;;;;;5059058;28;20551;-76
2022/09/10 03:11:40;;;;;;;11.80;8.93;;;;;;;;;;5045310;28;20047;-76
2022/09/10 03:14:09;;;;;;;9.75;8.13;;;;;;;;;;5051188;28;20027;-76
2022/09/10 03:16:35;;;;;;;8.82;8.00;;;;;;;;;;5060626;28;20082;-75
2022/09/10 03:19:00;;;;;;;11.38;7.80;;;;;;;;;;5057978;28;21062;-76
2022/09/10 03:21:25;;;;;;;8.88;7.97;;;;;;;;;;5056960;28;20435;-75
2022/09/10 03:23:51;;;;;;;9.77;7.78;;;;;;;;;;5040801;28;20048;-76
2022/09/10 03:26:18;;;;;;;9.10;7.88;;;;;;;;;;5056423;28;20036;-76
2022/09/10 03:28:44;;;;;;;9.95;7.40;;;;;;;;;;5039917;28;20486;-75
2022/09/10 03:31:09;;;;;;;10.00;7.28;;;;;;;;;;5058658;28;20028;-74
2022/09/10 03:33:36;;;;;;;8.98;7.28;;;;;;;;;;5055381;28;20033;-75
2022/09/10 03:36:02;;;;;;;8.27;7.32;;;;;;;;;;5060777;28;20028;-73
2022/09/10 03:38:28;;;;;;;10.93;7.93;;;;;;;;;;5056527;28;20035;-76
2022/09/10 03:40:53;;;;;;;9.32;8.25;;;;;;;;;;5042836;28;20032;-75
2022/09/10 03:43:20;;;;;;;10.43;7.97;;;;;;;;;;5040815;28;20052;-75
2022/09/10 03:45:48;;;;;;;8.90;8.10;;;;;;;;;;5057735;28;20459;-76
2022/09/10 03:48:14;;;;;;;9.05;8.15;;;;;;;;;;5059073;28;20063;-75
2022/09/10 03:50:41;;;;;;;9.13;8.02;;;;;;;;;;5057481;28;20028;-76
2022/09/10 03:53:06;;;;;;;9.80;8.05;;;;;;;;;;5056451;28;20352;-75
2022/09/10 03:55:33;;;;;;;9.27;8.48;;;;;;;;;;5057639;28;20453;-74
2022/09/10 03:57:58;;;;;;;10.35;9.27;;;;;;;;;;5056650;28;20112;-73
2022/09/10 04:00:23;;;;;;;10.30;9.05;;;;;;;;;;5041285;28;20099;-75
2022/09/10 04:02:49;;;;;;;9.82;8.80;;;;;;;;;;5046199;28;20025;-76
2022/09/10 04:05:15;;;;;;;9.70;8.70;;;;;;;;;;5043150;28;20182;-73
2022/09/10 04:07:40;;;;;;;12.93;9.20;;;;;;;;;;5058809;28;20028;-73
2022/09/10 04:10:05;;;;;;;10.40;9.23;;;;;;;;;;5054087;28;20508;-74
2022/09/10 04:12:31;;;;;;;15.70;8.70;;;;;;;;;;5034129;28;20036;-74
2022/09/10 04:14:56;;;;;;;15.23;9.95;;;;;;;;;;5034570;28;20025;-75
2022/09/10 04:17:23;;;;;;;10.82;9.38;;;;;;;;;;5035418;28;20561;-73
2022/09/10 04:19:49;;;;;;;10.05;9.05;;;;;;;;;;5034911;28;20039;-75
2022/09/10 04:22:15;;;;;;;10.30;9.20;;;;;;;;;;5043341;28;20032;-74
2022/09/10 04:24:41;;;;;;;11.07;10.07;;;;;;;;;;5046243;28;20017;-73
2022/09/10 04:27:06;;;;;;;13.23;9.60;;;;;;;;;;5036135;28;20029;-74
2022/09/10 04:29:31;;;;;;;13.10;9.77;;;;;;;;;;5038408;28;20158;-72
2022/09/10 04:31:57;;;;;;;10.75;9.75;;;;;;;;;;5019357;28;20029;-74
2022/09/10 04:34:22;;;;;;;11.02;9.55;;;;;;;;;;5040861;28;20070;-72
2022/09/10 04:36:48;;;;;;;19.42;15.93;;;;;;;;;;5039955;28;20162;-74
2022/09/10 04:39:14;;;;;;;13.75;11.30;;;;;;;;;;5026697;28;20139;-74
2022/09/10 04:41:40;;;;;;;11.57;10.45;;;;;;;;;;5037578;28;20040;-73
2022/09/10 04:44:05;;;;;;;11.55;10.35;;;;;;;;;;5035995;28;20048;-73
2022/09/10 04:46:30;;;;;;;12.63;10.30;;;;;;;;;;5039953;28;20512;-73
2022/09/10 04:48:56;;;;;;;11.18;10.07;;;;;;;;;;5041643;28;20103;-74
2022/09/10 04:51:22;;;;;;;14.18;10.70;;;;;;;;;;5041914;28;20090;-75
2022/09/10 04:53:47;;;;;;;12.43;10.85;;;;;;;;;;5042044;28;20029;-73
2022/09/10 04:56:13;;;;;;;11.23;9.95;;;;;;;;;;5043177;28;20031;-74
2022/09/10 04:58:39;;;;;;;11.40;10.27;;;;;;;;;;5041677;28;20371;-74
2022/09/10 05:01:05;;;;;;;11.75;10.52;;;;;;;;;;5040377;28;20115;-75
2022/09/10 05:03:30;;;;;;;12.52;11.18;;;;;;;;;;5024170;28;20025;-74
2022/09/10 05:05:56;;;;;;;11.77;10.38;;;;;;;;;;5036905;28;20356;-75
2022/09/10 05:08:21;;;;;;;12.18;10.98;;;;;;;;;;5044738;28;20060;-73
2022/09/10 05:10:47;;;;;;;12.38;10.82;;;;;;;;;;5036227;28;20040;-74
2022/09/10 05:13:12;;;;;;;12.18;10.68;;;;;;;;;;5040640;28;20107;-74
2022/09/10 05:15:39;;;;;;;12.15;11.05;;;;;;;;;;5060250;28;20436;-77
2022/09/10 05:18:04;;;;;;;11.23;10.13;;;;;;;;;;5057365;28;20039;-75
2022/09/10 05:20:30;;;;;;;12.40;10.27;;;;;;;;;;5058773;28;20036;-74
2022/09/10 05:22:55;;;;;;;12.02;10.88;;;;;;;;;;5061454;28;20021;-74
2022/09/10 05:25:21;;;;;;;12.05;10.60;;;;;;;;;;5061022;28;20028;-73
2022/09/10 05:27:48;;;;;;;18.95;15.70;;;;;;;;;;5056210;28;20117;-75
2022/09/10 05:30:13;;;;;;;32.53;21.58;;;;;;;;;;5057763;28;20033;-74
2022/09/10 05:32:39;;;;;;;18.73;13.77;;;;;;;;;;5060691;28;20032;-74
2022/09/10 05:35:05;;;;;;;13.95;12.57;;;;;;;;;;5057692;28;20017;-72
2022/09/10 05:37:30;;;;;;;13.00;11.68;;;;;;;;;;5061763;28;20068;-72
2022/09/10 05:39:56;;;;;;;11.55;10.35;;;;;;;;;;5060315;28;20036;-72
2022/09/10 05:42:21;;;;;;;11.90;10.60;;;;;;;;;;5059917;28;20045;-75
2022/09/10 05:44:46;;;;;;;16.52;12.35;;;;;;;;;;5034922;28;20021;-76
2022/09/10 05:47:12;;;;;;;15.13;11.23;;;;;;;;;;5045318;28;20098;-74
2022/09/10 05:49:37;;;;;;;12.68;11.30;;;;;;;;;;5043756;28;20043;-73
2022/09/10 05:52:03;;;;;;;12.10;10.85;;;;;;;;;;5042521;28;20557;-74
2022/09/10 05:54:28;;;;;;;12.07;10.98;;;;;;;;;;5041937;28;20174;-72
2022/09/10 05:56:53;;;;;;;11.77;10.60;;;;;;;;;;5039667;28;20447;-73
2022/09/10 05:59:19;;;;;;;12.35;11.05;;;;;;;;;;5060103;28;20032;-71
2022/09/10 06:01:44;;;;;;;12.63;11.32;;;;;;;;;;5042717;28;20036;-74
2022/09/10 06:04:10;;;;;;;12.80;11.35;;;;;;;;;;5056228;28;20031;-72
2022/09/10 06:06:36;;;;;;;12.98;10.80;;;;;;;;;;5059018;28;20040;-73
2022/09/10 06:09:01;;;;;;;12.80;10.27;;;;;;;;;;5059562;28;20083;-72
2022/09/10 06:11:26;;;;;;;12.05;9.55;;;;;;;;;;5058676;28;20028;-72
2022/09/10 06:13:52;;;;;;;11.18;10.07;;;;;;;;;;5058621;28;20032;-74
2022/09/10 06:16:17;;;;;;;16.48;14.80;;;;;;;;;;5058500;28;20012;-71
2022/09/10 06:18:42;;;;;;;15.88;14.18;;;;;;;;;;5058104;28;20339;-73
2022/09/10 06:21:12;;;;;;;13.82;12.35;;;;;;;;;;5059905;28;20390;-75
2022/09/10 06:23:40;;;;;;;13.82;11.48;;;;;;;;;;5059022;28;20020;-72
2022/09/10 06:26:09;;;;;;;13.18;9.80;;;;;;;;;;5059152;28;20020;-73
2022/09/10 06:28:34;;;;;;;12.73;10.07;;;;;;;;;;5060549;28;20052;-72
2022/09/10 06:31:02;;;;;;;11.65;10.10;;;;;;;;;;5059199;28;20431;-74
2022/09/10 06:33:27;;;;;;;9.85;8.95;;;;;;;;;;5058105;28;20131;-73
2022/09/10 06:35:53;;;;;;;12.65;9.13;;;;;;;;;;5059825;28;20123;-74
2022/09/10 06:38:19;;;;;;;11.50;9.40;;;;;;;;;;5056732;28;20154;-73
2022/09/10 06:40:54;;;;;;;14.95;9.20;;;;;;;;;;5060772;28;20522;-72
2022/09/10 06:43:22;;;;;;;12.82;8.82;;;;;;;;;;5059696;28;20098;-73
2022/09/10 06:45:51;;;;;;;10.27;8.68;;;;;;;;;;5059430;28;20024;-74
2022/09/10 06:48:17;;;;;;;;;;;;;;;;;;5060056;28;20474;-72
2022/09/10 06:50:56;;;;;;;10.82;8.27;;;;;;;;;;5054970;28;19908;-72
2022/09/10 06:53:21;;;;;;;;;;;;;;;;;;5037664;28;20029;-74
2022/09/10 06:55:48;;;;;;;11.07;9.33;;;;;;;;;;5036538;28;19920;-73
2022/09/10 06:58:14;;;;;;;16.48;9.13;;;;;;;;;;5060570;28;21201;-73
2022/09/10 07:00:40;;;;;;;10.15;8.82;;;;;;;;;;5050586;28;20024;-73
2022/09/10 07:03:05;;;;;;;11.63;8.95;;;;;;;;;;5050943;28;20083;-72
2022/09/10 07:05:34;;;;;;;11.27;9.13;;;;;;;;;;5057797;28;20885;-72
2022/09/10 07:08:00;;;;;;;11.20;8.55;;;;;;;;;;5057739;28;20028;-72
2022/09/10 07:10:27;;;;;;;10.63;7.85;;;;;;;;;;5038619;28;20098;-77
2022/09/10 07:12:52;;;;;;;10.40;7.78;;;;;;;;;;5057576;28;20087;-74
2022/09/10 07:15:17;;;;;;;10.05;7.90;;;;;;;;;;5040137;28;20056;-73
2022/09/10 07:17:43;;;;;;;10.77;8.15;;;;;;;;;;5059598;28;20035;-74
2022/09/10 07:20:08;;;;;;;10.15;7.75;;;;;;;;;;5056863;28;20067;-74
2022/09/10 07:22:34;;;;;;;11.70;7.72;;;;;;;;;;5059414;28;20031;-73
2022/09/10 07:24:59;;;;;;;11.35;7.63;;;;;;;;;;5059673;28;20411;-74
2022/09/10 07:27:24;;;;;;;9.55;7.55;;;;;;;;;;5058981;28;20093;-72
2022/09/10 07:29:50;;;;;;;9.93;7.35;;;;;;;;;;5058279;28;20074;-72
2022/09/10 07:32:17;;;;;;;10.85;8.15;;;;;;;;;;5057214;28;20082;-73
2022/09/10 07:34:42;;;;;;;10.20;7.25;;;;;;;;;;5057222;28;20024;-75
2022/09/10 07:37:07;;;;;;;9.00;6.85;;;;;;;;;;5058403;28;20035;-73
2022/09/10 07:39:33;;;;;;;7.88;6.47;;;;;;;;;;5055320;28;20020;-73
2022/09/10 07:41:59;;;;;;;12.40;6.70;;;;;;;;;;5056012;28;20537;-75
2022/09/10 07:44:24;;;;;;;12.65;7.20;;;;;;;;;;5053586;28;20367;-72
2022/09/10 07:46:51;;;;;;;15.38;7.20;;;;;;;;;;5052635;28;20013;-73
2022/09/10 07:49:16;;;;;;;10.65;7.93;;;;;;;;;;5056254;28;20032;-72
2022/09/10 07:51:41;;;;;;;9.68;7.30;;;;;;;;;;5055455;28;20043;-74
2022/09/10 07:54:07;;;;;;;11.18;6.80;;;;;;;;;;5055914;28;20032;-74
2022/09/10 07:56:32;;;;;;;7.43;6.45;;;;;;;;;;5058340;28;20029;-74
2022/09/10 07:58:58;;;;;;;12.45;6.68;;;;;;;;;;5057217;28;20016;-73
2022/09/10 08:01:23;;;;;;;11.93;5.75;;;;;;;;;;5056256;28;20025;-75
2022/09/10 08:03:48;;;;;;;8.48;5.32;;;;;;;;;;5057530;28;20078;-75
2022/09/10 08:06:14;;;;;;;8.68;5.45;;;;;;;;;;5057325;28;20353;-74
2022/09/10 08:08:41;;;;;;;11.48;6.10;;;;;;;;;;5059443;28;20058;-76
2022/09/10 08:11:15;;;;;;;10.35;5.85;;;;;;;;;;5059165;28;20038;-75
2022/09/10 08:13:43;;;;;;;9.18;5.20;;;;;;;;;;5055252;28;20062;-77
2022/09/10 08:16:11;;;;;;;14.75;5.80;;;;;;;;;;5058516;28;20028;-74
2022/09/10 08:18:36;;;;;;;7.35;5.20;;;;;;;;;;5055568;28;20376;-74
2022/09/10 08:21:02;;;;;;;10.65;5.40;;;;;;;;;;5059879;28;20029;-76
2022/09/10 08:23:28;;;;;;;12.93;5.97;;;;;;;;;;5039628;28;20032;-76
2022/09/10 08:25:54;;;;;;;9.85;5.82;;;;;;;;;;5039298;28;20028;-73
2022/09/10 08:28:20;;;;;;;8.18;5.68;;;;;;;;;;5040548;28;20027;-74
2022/09/10 08:30:56;;;;;;;10.05;5.72;;;;;;;;;;5039103;28;20032;-72
2022/09/10 08:33:21;;;;;;;8.75;6.13;;;;;;;;;;5036484;28;20029;-75
2022/09/10 08:35:51;;;;;;;7.78;5.90;;;;;;;;;;5041635;28;20021;-73
2022/09/10 08:38:17;;;;;;;10.63;6.00;;;;;;;;;;5038673;28;20459;-75
2022/09/10 08:40:43;;;;;;;10.27;5.93;;;;;;;;;;5041350;28;20032;-72
2022/09/10 08:43:09;;;;;;;11.35;5.72;;;;;;;;;;5037276;28;20060;-75
2022/09/10 08:45:36;;;;;;;10.68;5.88;;;;;;;;;;5039964;28;20358;-75
2022/09/10 08:48:07;;;;;;;7.63;5.68;;;;;;;;;;5037731;28;20115;-74
2022/09/10 08:50:32;;;;;;;9.55;6.13;;;;;;;;;;5036795;28;20439;-72
2022/09/10 08:53:12;;;;;;;12.13;6.22;;;;;;;;;;5041607;28;20043;-72
2022/09/10 08:55:40;;;;;;;12.35;7.20;;;;;;;;;;5035341;28;20097;-73
2022/09/10 08:58:22;;;;;;;12.02;9.40;;;;;;;;;;5041899;28;20060;-73
2022/09/10 09:00:49;;;;;;;29.23;14.73;;;;;;;;;;5037971;28;20033;-73
2022/09/10 09:03:15;;;;;;;14.00;7.25;;;;;;;;;;5021888;28;20025;-74
2022/09/10 09:05:45;;;;;;;9.10;6.38;;;;;;;;;;5040276;28;20025;-75
2022/09/10 09:08:13;;;;;;;13.70;6.13;;;;;;;;;;5036930;28;20029;-77
2022/09/10 09:10:45;;;;;;;9.75;6.47;;;;;;;;;;5042894;28;20524;-73
2022/09/10 09:13:21;;;;;;;10.68;6.50;;;;;;;;;;5041682;28;20028;-74
2022/09/10 09:15:55;;;;;;;8.30;6.53;;;;;;;;;;5037873;28;20063;-75
2022/09/10 09:18:21;;;;;;;10.52;7.10;;;;;;;;;;5039465;28;20158;-74
2022/09/10 09:20:53;;;;;;;9.05;6.22;;;;;;;;;;5039976;28;20115;-73
2022/09/10 09:23:40;;;;;;;10.02;7.18;;;;;;;;;;5041145;28;20020;-75
2022/09/10 09:26:15;;;;;;;9.88;7.20;;;;;;;;;;5039346;28;20025;-73
2022/09/10 09:28:50;;;;;;;9.70;6.82;;;;;;;;;;5036394;28;20057;-75
2022/09/10 09:31:37;;;;;;;15.07;6.80;;;;;;;;;;5035354;28;20139;-71
2022/09/10 09:34:20;;;;;;;9.18;6.63;;;;;;;;;;5050119;28;20032;-74
2022/09/10 09:36:50;;;;;;;12.65;7.05;;;;;;;;;;5059943;28;20313;-72
2022/09/10 09:39:21;;;;;;;11.95;8.23;;;;;;;;;;5056809;28;20463;-75
2022/09/10 09:41:55;;;;;;;12.23;8.32;;;;;;;;;;5041068;28;20040;-73
2022/09/10 09:44:23;;;;;;;15.43;9.90;;;;;;;;;;5044768;28;20039;-73
2022/09/10 09:46:49;;;;;;;98.63;86.67;;;;;;;;;;5036596;28;20135;-75
2022/09/10 09:49:15;;;;;;;29.63;23.40;;;;;;;;;;5038530;28;20104;-72
2022/09/10 09:51:42;;;;;;;15.55;10.65;;;;;;;;;;5042697;28;20025;-74
2022/09/10 09:54:11;;;;;;;12.32;8.77;;;;;;;;;;5040226;28;20051;-73
2022/09/10 09:56:36;;;;;;;;;;;;;;;;;;5038514;28;20051;-72
2022/09/10 09:59:11;;;;;;;19.87;13.77;;;;;;;;;;5036078;28;20335;-74
2022/09/10 10:01:38;;;;;;;15.30;10.00;;;;;;;;;;5038292;28;20032;-74
2022/09/10 10:04:18;;;;;;;14.05;8.50;;;;;;;;;;5036410;28;20059;-76
2022/09/10 10:06:51;;;;;;;10.98;7.85;;;;;;;;;;5036511;28;20094;-73
2022/09/10 10:09:19;;;;;;;13.50;7.88;;;;;;;;;;5038760;28;20025;-74
2022/09/10 10:12:04;;;;;;;9.25;8.32;;;;;;;;;;5042291;28;20024;-75
2022/09/10 10:14:29;;;;;;;9.05;7.30;;;;;;;;;;5039790;28;20072;-74
2022/09/10 10:16:55;;;;;;;10.60;8.13;;;;;;;;;;5046984;28;20017;-75
2022/09/10 10:19:27;;;;;;;12.52;7.88;;;;;;;;;;5038056;28;20405;-75
2022/09/10 10:21:53;;;;;;;10.10;8.27;;;;;;;;;;5042428;28;20028;-75
2022/09/10 10:24:37;;;;;;;9.00;7.38;;;;;;;;;;5037365;28;20107;-75
2022/09/10 10:27:02;;;;;;;10.18;7.45;;;;;;;;;;5039641;28;20095;-74
2022/09/10 10:29:27;;;;;;;9.90;7.53;;;;;;;;;;5035235;28;20021;-75
2022/09/10 10:31:54;;;;;;;10.20;7.32;;;;;;;;;;5036302;28;20107;-73
2022/09/10 10:34:27;;;;;;;9.10;7.28;;;;;;;;;;5037594;28;20428;-72
2022/09/10 10:37:01;;;;;;;11.77;6.82;;;;;;;;;;5035632;28;20047;-74
2022/09/10 10:39:26;;;;;;;13.25;8.48;;;;;;;;;;5037629;28;20104;-72
2022/09/10 10:42:03;;;;;;;7.50;6.60;;;;;;;;;;5038195;28;20027;-74
2022/09/10 10:44:38;;;;;;;8.75;6.13;;;;;;;;;;5036840;28;20033;-74
2022/09/10 10:47:22;;;;;;;10.55;6.00;;;;;;;;;;5054684;28;21955;-75
2022/09/10 10:49:48;;;;;;;9.38;6.07;;;;;;;;;;5034506;28;20028;-75
2022/09/10 10:52:20;;;;;;;7.75;5.25;;;;;;;;;;5035244;28;20475;-73
2022/09/10 10:54:46;;;;;;;6.60;5.05;;;;;;;;;;5036972;28;20016;-76
2022/09/10 10:57:29;;;;;;;6.07;4.57;;;;;;;;;;5034406;28;20443;-73
2022/09/10 11:00:07;;;;;;;6.43;4.40;;;;;;;;;;5038089;28;20471;-74
2022/09/10 11:02:48;;;;;;;8.68;4.63;;;;;;;;;;5036621;28;20082;-75
2022/09/10 11:05:25;;;;;;;6.00;4.55;;;;;;;;;;5037647;28;20034;-73
2022/09/10 11:07:51;;;;;;;12.75;4.60;;;;;;;;;;5037101;28;20379;-75
2022/09/10 11:10:28;;;;;;;8.52;4.25;;;;;;;;;;5041836;28;20021;-76
2022/09/10 11:13:12;;;;;;;6.85;4.65;;;;;;;;;;5024302;28;20458;-76
2022/09/10 11:15:37;;;;;;;6.05;4.15;;;;;;;;;;5052957;28;20032;-76
2022/09/10 11:18:16;;;;;;;7.55;3.80;;;;;;;;;;5048717;28;20029;-75
2022/09/10 11:20:47;;;;;;;8.43;4.75;;;;;;;;;;5040046;28;20352;-76
2022/09/10 11:23:26;;;;;;;8.75;4.50;;;;;;;;;;5056766;28;20057;-75
2022/09/10 11:26:11;;;;;;;8.20;4.30;;;;;;;;;;5059872;28;20028;-76
2022/09/10 11:28:46;;;;;;;13.55;9.50;;;;;;;;;;5054200;28;20025;-74
2022/09/10 11:31:19;;;;;;;6.75;4.03;;;;;;;;;;5032063;28;20029;-75
2022/09/10 11:33:54;;;;;;;6.70;5.35;;;;;;;;;;5034846;28;20028;-76
2022/09/10 11:36:26;;;;;;;10.57;4.55;;;;;;;;;;5025217;28;20032;-76
2022/09/10 11:39:05;;;;;;;6.65;4.70;;;;;;;;;;5043253;28;20032;-74
2022/09/10 11:41:32;;;;;;;6.63;4.47;;;;;;;;;;5039595;28;20723;-73
2022/09/10 11:43:58;;;;;;;5.90;4.07;;;;;;;;;;5019491;28;20130;-75
2022/09/10 11:46:31;;;;;;;11.10;4.78;;;;;;;;;;5003359;28;20413;-75
2022/09/10 11:48:58;;;;;;;6.80;4.20;;;;;;;;;;5000104;28;20030;-73
2022/09/10 11:51:29;;;;;;;7.25;4.60;;;;;;;;;;4999897;28;20029;-72
2022/09/10 11:53:55;;;;;;;10.23;4.60;;;;;;;;;;4995290;28;20041;-71
2022/09/10 11:56:24;;;;;;;6.75;4.40;;;;;;;;;;4999456;28;20415;-72
2022/09/10 11:58:59;;;;;;;8.43;4.50;;;;;;;;;;4996438;28;20024;-73
2022/09/10 12:01:50;;;;;;;8.38;4.72;;;;;;;;;;4997639;28;20041;-73
2022/09/10 12:04:34;;;;;;;9.65;4.40;;;;;;;;;;4996973;28;20046;-72
2022/09/10 12:07:18;;;;;;;7.68;4.75;;;;;;;;;;5014913;28;20352;-72
2022/09/10 12:09:46;;;;;;;12.68;7.40;;;;;;;;;;5017163;28;20033;-74
2022/09/10 12:12:12;;;;;;;22.25;13.25;;;;;;;;;;5033655;28;20459;-73
2022/09/10 12:14:39;;;;;;;20.70;13.15;;;;;;;;;;5017846;28;20342;-72
2022/09/10 12:17:13;;;;;;;15.93;7.97;;;;;;;;;;5011682;28;20026;-72
2022/09/10 12:19:45;;;;;;;8.65;6.28;;;;;;;;;;5029785;28;20030;-73
2022/09/10 12:22:30;;;;;;;10.75;6.18;;;;;;;;;;4992771;28;20026;-70
2022/09/10 12:25:14;;;;;;;11.32;5.82;;;;;;;;;;4997737;28;20428;-72
2022/09/10 12:27:50;;;;;;;10.20;6.00;;;;;;;;;;4995749;28;20026;-72
2022/09/10 12:30:33;;;;;;;11.27;6.45;;;;;;;;;;4998134;28;20033;-70
2022/09/10 12:33:20;;;;;;;12.75;6.80;;;;;;;;;;5009470;28;20048;-71
2022/09/10 12:35:47;;;;;;;71.47;48.25;;;;;;;;;;4970908;28;20832;-71
2022/09/10 12:38:41;;;;;;;14.95;9.85;;;;;;;;;;4996338;28;20033;-71
2022/09/10 12:41:13;;;;;;;14.52;8.93;;;;;;;;;;4924711;28;20082;-71
2022/09/10 12:43:38;;;;;;;28.80;23.52;;;;;;;;;;4950166;28;20047;-70
2022/09/10 12:46:11;;;;;;;16.70;13.50;;;;;;;;;;4947590;28;20046;-73
2022/09/10 12:48:45;;;;;;;11.73;8.35;;;;;;;;;;4946410;28;20035;-72
2022/09/10 12:51:17;;;;;;;7.40;4.80;;;;;;;;;;4949858;28;20046;-72
2022/09/10 12:53:54;;;;;;;8.43;5.47;;;;;;;;;;4929973;28;20057;-71
2022/09/10 12:56:25;;;;;;;6.82;4.78;;;;;;;;;;4949408;28;20031;-71
2022/09/10 12:58:53;;;;;;;10.02;6.57;;;;;;;;;;4943466;28;20054;-71
2022/09/10 13:01:24;;;;;;;7.85;4.50;;;;;;;;;;4936582;28;20059;-72
2022/09/10 13:03:54;;;;;;;8.95;4.93;;;;;;;;;;4941798;28;20047;-74
2022/09/10 13:06:32;;;;;;;48.17;40.60;;;;;;;;;;4938251;28;20027;-75
2022/09/10 13:08:57;;;;;;;20.58;11.00;;;;;;;;;;4938153;28;20027;-74
2022/09/10 13:11:23;;;;;;;8.70;6.70;;;;;;;;;;4945610;28;21344;-74
2022/09/10 13:13:57;;;;;;;10.77;6.93;;;;;;;;;;4938898;28;20042;-74
2022/09/10 13:16:26;;;;;;;10.43;6.30;;;;;;;;;;4942027;28;20410;-75
2022/09/10 13:18:53;;;;;;;12.02;5.22;;;;;;;;;;5018296;28;20022;-74
2022/09/10 13:21:24;;;;;;;10.48;7.53;;;;;;;;;;5023700;28;20064;-74
2022/09/10 13:23:50;;;;;;;10.40;4.90;;;;;;;;;;5020250;28;20112;-75
2022/09/10 13:26:29;;;;;;;7.88;4.43;;;;;;;;;;5004291;28;20092;-75
2022/09/10 13:28:55;;;;;;;10.35;4.50;;;;;;;;;;5004063;28;20045;-75
2022/09/10 13:31:30;;;;;;;6.93;4.25;;;;;;;;;;4997878;28;20029;-74
2022/09/10 13:34:14;;;;;;;16.65;13.07;;;;;;;;;;4999278;28;20044;-75
2022/09/10 13:36:54;;;;;;;8.45;5.30;;;;;;;;;;5002596;28;20041;-76
2022/09/10 13:39:38;;;;;;;10.00;4.82;;;;;;;;;;5000462;28;20960;-74
2022/09/10 13:42:22;;;;;;;7.07;3.92;;;;;;;;;;5009752;28;20056;-74
2022/09/10 13:44:50;;;;;;;9.40;5.28;;;;;;;;;;5033420;28;20021;-75
2022/09/10 13:47:21;;;;;;;10.53;5.13;;;;;;;;;;5039482;28;20039;-75
2022/09/10 13:49:51;;;;;;;12.10;6.85;;;;;;;;;;5034132;28;20090;-74
2022/09/10 13:52:20;;;;;;;11.50;8.38;;;;;;;;;;5036607;28;20124;-74
2022/09/10 13:54:49;;;;;;;10.93;8.05;;;;;;;;;;5034456;28;20037;-74
2022/09/10 13:57:32;;;;;;;8.52;5.05;;;;;;;;;;5041180;28;20107;-74
2022/09/10 14:00:06;;;;;;;8.45;4.85;;;;;;;;;;5041403;28;20111;-74
2022/09/10 14:02:46;;;;;;;5.53;4.05;;;;;;;;;;5039496;28;20027;-74
2022/09/10 14:05:30;;;;;;;12.65;4.60;;;;;;;;;;5044963;28;20058;-73
2022/09/10 14:07:59;;;;;;;10.82;6.88;;;;;;;;;;5042485;28;20044;-74
2022/09/10 14:10:24;;;;;;;15.52;7.55;;;;;;;;;;5044532;28;20877;-74
2022/09/10 14:12:50;;;;;;;10.82;7.32;;;;;;;;;;5041901;28;20032;-74
2022/09/10 14:15:18;;;;;;;8.85;5.70;;;;;;;;;;5044287;28;20115;-73
2022/09/10 14:17:46;;;;;;;7.32;4.65;;;;;;;;;;5041074;28;20029;-74
2022/09/10 14:20:29;;;;;;;9.55;6.80;;;;;;;;;;5041674;28;20025;-74
2022/09/10 14:23:04;;;;;;;8.68;4.50;;;;;;;;;;5040914;28;20028;-72
2022/09/10 14:25:30;;;;;;;7.93;4.07;;;;;;;;;;5047069;28;20020;-74
2022/09/10 14:28:10;;;;;;;9.25;4.57;;;;;;;;;;5035129;28;20359;-75
2022/09/10 14:30:36;;;;;;;7.75;3.80;;;;;;;;;;5054511;28;20043;-73
2022/09/10 14:33:21;;;;;;;6.45;3.35;;;;;;;;;;5053571;28;20032;-73
2022/09/10 14:35:50;;;;;;;8.50;3.70;;;;;;;;;;5055834;28;20024;-72
2022/09/10 14:38:28;;;;;;;7.15;4.00;;;;;;;;;;5057713;28;20077;-74
2022/09/10 14:40:59;;;;;;;7.72;5.30;;;;;;;;;;5052892;28;20065;-74
2022/09/10 14:43:36;;;;;;;8.07;5.60;;;;;;;;;;5018327;28;20057;-74
2022/09/10 14:46:03;;;;;;;7.97;4.90;;;;;;;;;;5039175;28;20107;-74
2022/09/10 14:48:34;;;;;;;8.20;5.80;;;;;;;;;;5057679;28;20028;-74